Portada
METAR-TAF:

METAR-TAF

Aeroports :

Buixehr, Iran

latitud: 28-59N, longitud: 050-50E, altitud: 19 m

Observació

L'informe es va fer fa 21 minuts, a les 15:00 UTC
Vent calma
Temperatura 20°C
Humitat 49%
Pressió 1017 hPa
Visibilitat: 8000 m
Escasses núvols a una alçada de 4000 ft
Cel cobert a una alçada de 10000 ft

METAR: OIBB 181500Z 00000KT 8000 FEW040 OVC100 20/09 Q1017 A3004

Hora: 18:51 (15:21 UTC)


TAF: manca

Observacions i pronòstics meteorològics de més de 4000 aeroports (METAR i TAF).

Les estacions disponibles són els punts grocs i vermells al mapa.

Posi el ratolí al punt desitjat per veure el nom de l'estació.

Feu clic per veure les observacions i els pronòstics meteorològics.

Per canviar el mapa: feu clic els botons verds amb una creu de color negre per apropar; al botó verd amb un guió per allunyar la imatge; o en les fletxes verdes per a mapes adjacents.


METAR-TAF: